Time,TemperatureF,DewpointF,PressureIn,WindDirection,WindDirectionDegrees,WindSpeedMPH,WindSpeedGustMPH,Humidity,HourlyPrecipIn,Conditions,Clouds,dailyrainin,SolarRadiationWatts/m^2,SoftwareType,DateUTC
2013-04-03 00:01:00,57.0,53.0,-100.00,NNE,19,8.0,12.0,88,0.00,,,0.01,0.000000,,2013-04-03 10:01:00,
2013-04-03 00:22:00,57.0,53.0,-100.00,NNE,19,8.0,12.0,88,0.00,,,0.01,0.000000,,2013-04-03 10:22:00,
2013-04-03 00:33:00,57.0,53.0,-100.00,NNE,19,8.0,12.0,88,0.00,,,0.01,0.000000,,2013-04-03 10:33:00,
2013-04-03 00:43:00,57.0,53.0,-100.00,NNE,19,8.0,12.0,88,0.00,,,0.01,0.000000,,2013-04-03 10:43:00,
2013-04-03 00:52:00,57.0,53.0,-100.00,NNE,19,8.0,12.0,88,0.00,,,0.01,0.000000,,2013-04-03 10:52:00,
2013-04-03 01:01:00,56.0,52.0,-100.00,North,4,7.0,12.0,88,0.00,,,0.01,0.000000,,2013-04-03 11:01:00,
2013-04-03 01:23:00,56.0,52.0,-100.00,North,4,7.0,12.0,88,0.00,,,0.01,0.000000,,2013-04-03 11:23:00,
2013-04-03 01:32:00,56.0,52.0,-100.00,North,4,7.0,12.0,88,0.00,,,0.01,0.000000,,2013-04-03 11:32:00,
2013-04-03 01:42:00,56.0,52.0,-100.00,North,4,7.0,12.0,88,0.00,,,0.01,0.000000,,2013-04-03 11:42:00,
2013-04-03 01:53:00,56.0,52.0,-100.00,North,4,7.0,12.0,88,0.00,,,0.01,0.000000,,2013-04-03 11:53:00,
2013-04-03 02:01:00,56.0,52.0,-100.00,NNE,20,9.0,17.0,87,0.00,,,0.01,0.000000,,2013-04-03 12:01:00,
2013-04-03 02:22:00,56.0,52.0,-100.00,NNE,20,9.0,17.0,87,0.00,,,0.01,0.000000,,2013-04-03 12:22:00,
2013-04-03 02:33:00,56.0,52.0,-100.00,NNE,20,9.0,17.0,87,0.00,,,0.01,0.000000,,2013-04-03 12:33:00,
2013-04-03 02:42:00,56.0,52.0,-100.00,NNE,20,9.0,17.0,87,0.00,,,0.01,0.000000,,2013-04-03 12:42:00,
2013-04-03 02:52:00,56.0,52.0,-100.00,NNE,20,9.0,17.0,87,0.00,,,0.01,0.000000,,2013-04-03 12:52:00,
2013-04-03 03:01:00,57.0,52.0,-100.00,North,359,7.0,10.0,83,0.00,,,0.01,0.000000,,2013-04-03 13:01:00,
2013-04-03 03:32:00,57.0,52.0,-100.00,North,359,7.0,10.0,83,0.00,,,0.01,0.000000,,2013-04-03 13:32:00,
2013-04-03 03:42:00,57.0,52.0,-100.00,North,359,7.0,10.0,83,0.00,,,0.01,0.000000,,2013-04-03 13:42:00,
2013-04-03 03:52:00,57.0,52.0,-100.00,North,359,7.0,10.0,83,0.00,,,0.01,0.000000,,2013-04-03 13:52:00,
2013-04-03 04:01:00,55.0,51.0,-100.00,NNE,22,8.0,11.0,87,0.00,,,0.01,0.000000,,2013-04-03 14:01:00,
2013-04-03 04:32:00,55.0,51.0,-100.00,NNE,22,8.0,11.0,87,0.00,,,0.01,0.000000,,2013-04-03 14:32:00,
2013-04-03 04:43:00,55.0,51.0,-100.00,NNE,22,8.0,11.0,87,0.00,,,0.01,0.000000,,2013-04-03 14:43:00,
2013-04-03 04:52:00,55.0,51.0,-100.00,NNE,22,8.0,11.0,87,0.00,,,0.01,0.000000,,2013-04-03 14:52:00,
2013-04-03 05:01:00,54.0,50.0,-100.00,NNE,15,7.0,12.0,86,0.00,,,0.01,0.000000,,2013-04-03 15:01:00,
2013-04-03 05:33:00,54.0,50.0,-100.00,NNE,15,7.0,12.0,86,0.00,,,0.01,0.000000,,2013-04-03 15:33:00,
2013-04-03 05:43:00,54.0,50.0,-100.00,NNE,15,7.0,12.0,86,0.00,,,0.01,0.000000,,2013-04-03 15:43:00,
2013-04-03 05:53:00,54.0,50.0,-100.00,NNE,15,7.0,12.0,86,0.00,,,0.01,0.000000,,2013-04-03 15:53:00,
2013-04-03 06:01:00,53.0,49.0,-100.00,North,1,6.0,9.0,85,0.00,,,0.01,0.000000,,2013-04-03 16:01:00,
2013-04-03 06:33:00,53.0,49.0,-100.00,North,1,6.0,9.0,85,0.00,,,0.01,0.000000,,2013-04-03 16:33:00,
2013-04-03 06:44:00,53.0,49.0,-100.00,North,1,6.0,9.0,85,0.00,,,0.01,0.000000,,2013-04-03 16:44:00,
2013-04-03 06:52:00,53.0,49.0,-100.00,North,1,6.0,9.0,85,0.00,,,0.01,0.000000,,2013-04-03 16:52:00,
2013-04-03 07:01:00,55.0,51.0,-100.00,North,1,5.0,12.0,86,0.00,,,0.01,30.000000,,2013-04-03 17:01:00,
2013-04-03 07:34:00,55.0,51.0,-100.00,North,1,5.0,12.0,86,0.00,,,0.01,30.000000,,2013-04-03 17:34:00,
2013-04-03 07:46:00,55.0,51.0,-100.00,North,1,5.0,12.0,86,0.00,,,0.01,30.000000,,2013-04-03 17:46:00,
2013-04-03 07:53:00,55.0,51.0,-100.00,North,1,5.0,12.0,86,0.00,,,0.01,30.000000,,2013-04-03 17:53:00,
2013-04-03 08:01:00,62.0,54.0,-100.00,NNE,16,6.0,9.0,76,0.00,,,0.01,234.000000,,2013-04-03 18:01:00,
2013-04-03 08:34:00,62.0,54.0,-100.00,NNE,16,6.0,9.0,76,0.00,,,0.01,234.000000,,2013-04-03 18:34:00,
2013-04-03 08:43:00,62.0,54.0,-100.00,NNE,16,6.0,9.0,76,0.00,,,0.01,234.000000,,2013-04-03 18:43:00,
2013-04-03 08:52:00,62.0,54.0,-100.00,NNE,16,6.0,9.0,76,0.00,,,0.01,234.000000,,2013-04-03 18:52:00,
2013-04-03 09:01:00,64.0,56.0,-100.00,ESE,123,5.0,9.0,75,0.00,,,0.01,384.000000,,2013-04-03 19:01:00,
2013-04-03 09:32:00,64.0,56.0,-100.00,ESE,123,5.0,9.0,75,0.00,,,0.01,384.000000,,2013-04-03 19:32:00,
2013-04-03 09:42:00,64.0,56.0,-100.00,ESE,123,5.0,9.0,75,0.00,,,0.01,384.000000,,2013-04-03 19:42:00,
2013-04-03 09:52:00,64.0,56.0,-100.00,ESE,123,5.0,9.0,75,0.00,,,0.01,384.000000,,2013-04-03 19:52:00,
2013-04-03 10:01:00,64.0,55.0,-100.00,East,83,5.0,13.0,73,0.00,,,0.01,398.000000,,2013-04-03 20:01:00,
2013-04-03 10:33:00,64.0,55.0,-100.00,East,83,5.0,13.0,73,0.00,,,0.01,398.000000,,2013-04-03 20:33:00,
2013-04-03 10:42:00,64.0,55.0,-100.00,East,83,5.0,13.0,73,0.00,,,0.01,398.000000,,2013-04-03 20:42:00,
2013-04-03 10:53:00,64.0,55.0,-100.00,East,83,5.0,13.0,73,0.00,,,0.01,398.000000,,2013-04-03 20:53:00,
2013-04-03 11:01:00,67.0,57.0,-100.00,SE,125,11.0,17.0,71,0.00,,,-99.99,446.000000,,2013-04-03 21:01:00,
2013-04-03 11:33:00,67.0,57.0,-100.00,SE,125,11.0,17.0,71,0.00,,,-99.99,446.000000,,2013-04-03 21:33:00,
2013-04-03 11:42:00,67.0,57.0,-100.00,SE,125,11.0,17.0,71,0.00,,,-99.99,446.000000,,2013-04-03 21:42:00,
2013-04-03 11:52:00,67.0,57.0,-100.00,SE,125,11.0,17.0,71,0.00,,,-99.99,446.000000,,2013-04-03 21:52:00,
2013-04-03 12:01:00,66.0,56.0,-100.00,ESE,116,11.0,18.0,70,0.00,,,0.01,619.000000,,2013-04-03 22:01:00,
2013-04-03 12:33:00,66.0,56.0,-100.00,ESE,116,11.0,18.0,70,0.00,,,0.01,619.000000,,2013-04-03 22:33:00,
2013-04-03 12:42:00,66.0,56.0,-100.00,ESE,116,11.0,18.0,70,0.00,,,0.01,619.000000,,2013-04-03 22:42:00,
2013-04-03 12:52:00,66.0,56.0,-100.00,ESE,116,11.0,18.0,70,0.00,,,0.01,619.000000,,2013-04-03 22:52:00,
2013-04-03 13:01:00,64.0,56.0,-100.00,ESE,109,11.0,19.0,75,0.00,,,0.01,523.000000,,2013-04-03 23:01:00,
2013-04-03 13:33:00,64.0,56.0,-100.00,ESE,109,11.0,19.0,75,0.00,,,0.01,523.000000,,2013-04-03 23:33:00,
2013-04-03 13:43:00,64.0,56.0,-100.00,ESE,109,11.0,19.0,75,0.00,,,0.01,523.000000,,2013-04-03 23:43:00,
2013-04-03 13:54:00,64.0,56.0,-100.00,ESE,109,11.0,19.0,75,0.00,,,0.01,523.000000,,2013-04-03 23:54:00,
2013-04-03 14:01:00,61.0,56.0,-100.00,ESE,115,10.0,17.0,83,0.00,,,-99.99,101.000000,,2013-04-04 00:01:00,
2013-04-03 14:32:00,61.0,56.0,-100.00,ESE,115,10.0,17.0,83,0.00,,,-99.99,101.000000,,2013-04-04 00:32:00,
2013-04-03 14:43:00,61.0,56.0,-100.00,ESE,115,10.0,17.0,83,0.00,,,-99.99,101.000000,,2013-04-04 00:43:00,
2013-04-03 14:52:00,61.0,56.0,-100.00,ESE,115,10.0,17.0,83,0.00,,,-99.99,101.000000,,2013-04-04 00:52:00,
2013-04-03 15:01:00,61.0,57.0,-100.00,ESE,112,9.0,16.0,87,0.00,,,0.01,56.000000,,2013-04-04 01:01:00,
2013-04-03 15:32:00,61.0,57.0,-100.00,ESE,112,9.0,16.0,87,0.00,,,0.01,56.000000,,2013-04-04 01:32:00,
2013-04-03 15:43:00,61.0,57.0,-100.00,ESE,112,9.0,16.0,87,0.00,,,0.01,56.000000,,2013-04-04 01:43:00,
2013-04-03 15:52:00,61.0,57.0,-100.00,ESE,112,9.0,16.0,87,0.00,,,0.01,56.000000,,2013-04-04 01:52:00,
2013-04-03 16:01:00,60.0,57.0,-100.00,East,82,5.0,14.0,91,0.00,,,0.01,32.000000,,2013-04-04 02:01:00,
2013-04-03 16:22:00,60.0,57.0,-100.00,East,82,5.0,14.0,91,0.00,,,0.01,32.000000,,2013-04-04 02:22:00,
2013-04-03 16:32:00,60.0,57.0,-100.00,East,82,5.0,14.0,91,0.00,,,0.01,32.000000,,2013-04-04 02:32:00,
2013-04-03 16:42:00,60.0,57.0,-100.00,East,82,5.0,14.0,91,0.00,,,0.01,32.000000,,2013-04-04 02:42:00,
2013-04-03 16:52:00,60.0,57.0,-100.00,East,82,5.0,14.0,91,0.00,,,0.01,32.000000,,2013-04-04 02:52:00,
2013-04-03 17:01:00,59.0,57.0,-100.00,NE,35,4.0,8.0,94,0.00,,,0.01,34.000000,,2013-04-04 03:01:00,
2013-04-03 17:23:00,59.0,57.0,-100.00,NE,35,4.0,8.0,94,0.00,,,0.01,34.000000,,2013-04-04 03:23:00,
2013-04-03 17:34:00,59.0,57.0,-100.00,NE,35,4.0,8.0,94,0.00,,,0.01,34.000000,,2013-04-04 03:34:00,
2013-04-03 17:45:00,59.0,57.0,-100.00,NE,35,4.0,8.0,94,0.00,,,0.01,34.000000,,2013-04-04 03:45:00,
2013-04-03 17:53:00,59.0,57.0,-100.00,NE,35,4.0,8.0,94,0.00,,,0.01,34.000000,,2013-04-04 03:53:00,
2013-04-03 18:01:00,58.0,57.0,-100.00,NE,43,5.0,9.0,95,0.01,,,-99.99,14.000000,,2013-04-04 04:01:00,
2013-04-03 18:34:00,58.0,57.0,-100.00,NE,43,5.0,9.0,95,0.01,,,-99.99,14.000000,,2013-04-04 04:34:00,
2013-04-03 18:43:00,58.0,57.0,-100.00,NE,43,5.0,9.0,95,0.01,,,-99.99,14.000000,,2013-04-04 04:43:00,
2013-04-03 18:53:00,58.0,57.0,-100.00,NE,43,5.0,9.0,95,0.01,,,-99.99,14.000000,,2013-04-04 04:53:00,
2013-04-03 19:01:00,58.0,56.0,-100.00,NE,41,6.0,10.0,92,0.00,,,0.01,4.000000,,2013-04-04 05:01:00,
2013-04-03 19:32:00,58.0,56.0,-100.00,NE,41,6.0,10.0,92,0.00,,,0.01,4.000000,,2013-04-04 05:32:00,
2013-04-03 19:42:00,58.0,56.0,-100.00,NE,41,6.0,10.0,92,0.00,,,0.01,4.000000,,2013-04-04 05:42:00,
2013-04-03 19:52:00,58.0,56.0,-100.00,NE,41,6.0,10.0,92,0.00,,,0.01,4.000000,,2013-04-04 05:52:00,
2013-04-03 20:01:00,58.0,55.0,-100.00,NNE,21,6.0,11.0,91,0.00,,,0.01,0.000000,,2013-04-04 06:01:00,
2013-04-03 20:33:00,58.0,55.0,-100.00,NNE,21,6.0,11.0,91,0.00,,,0.01,0.000000,,2013-04-04 06:33:00,
2013-04-03 20:42:00,58.0,55.0,-100.00,NNE,21,6.0,11.0,91,0.00,,,0.01,0.000000,,2013-04-04 06:42:00,
2013-04-03 20:52:00,58.0,55.0,-100.00,NNE,21,6.0,11.0,91,0.00,,,0.01,0.000000,,2013-04-04 06:52:00,
2013-04-03 21:01:00,59.0,56.0,-100.00,NNE,12,5.0,9.0,90,0.00,,,0.01,0.000000,,2013-04-04 07:01:00,
2013-04-03 21:22:00,59.0,56.0,-100.00,NNE,12,5.0,9.0,90,0.00,,,0.01,0.000000,,2013-04-04 07:22:00,
2013-04-03 21:32:00,59.0,56.0,-100.00,NNE,12,5.0,9.0,90,0.00,,,0.01,0.000000,,2013-04-04 07:32:00,
2013-04-03 21:43:00,59.0,56.0,-100.00,NNE,12,5.0,9.0,90,0.00,,,0.01,0.000000,,2013-04-04 07:43:00,
2013-04-03 21:52:00,59.0,56.0,-100.00,NNE,12,5.0,9.0,90,0.00,,,0.01,0.000000,,2013-04-04 07:52:00,
2013-04-03 22:01:00,58.0,55.0,-100.00,NNE,17,4.0,9.0,90,0.00,,,-99.99,0.000000,,2013-04-04 08:01:00,
2013-04-03 22:32:00,58.0,55.0,-100.00,NNE,17,4.0,9.0,90,0.00,,,-99.99,0.000000,,2013-04-04 08:32:00,
2013-04-03 22:43:00,58.0,55.0,-100.00,NNE,17,4.0,9.0,90,0.00,,,-99.99,0.000000,,2013-04-04 08:43:00,
2013-04-03 22:52:00,58.0,55.0,-100.00,NNE,17,4.0,9.0,90,0.00,,,-99.99,0.000000,,2013-04-04 08:52:00,
2013-04-03 23:01:00,57.0,55.0,-100.00,NNE,30,1.0,8.0,93,0.00,,,0.01,0.000000,,2013-04-04 09:01:00,
2013-04-03 23:34:00,57.0,55.0,-100.00,NNE,30,1.0,8.0,93,0.00,,,0.01,0.000000,,2013-04-04 09:34:00,
2013-04-03 23:43:00,57.0,55.0,-100.00,NNE,30,1.0,8.0,93,0.00,,,0.01,0.000000,,2013-04-04 09:43:00,
2013-04-03 23:53:00,57.0,55.0,-100.00,NNE,30,1.0,8.0,93,0.00,,,0.01,0.000000,,2013-04-04 09:53:00,